EGAE

Details ICAO EGAE (LDY)
Name Londonderry Eglinton
Region United Kingdom
Timezone Europe/London (UTC+0.0)
Plans Departing 39
Arriving 45
Stats Elevation 22 ft / 7 m (AMSL)
Location 55.042812° -7.161188°
Runways 1
Magnetic Variation 3.709° W
Sunrise 2017-12-16 08:50:02 UTC / 2017-12-16 08:50:02 Local
Sunset 2017-12-16 16:01:18 UTC / 2017-12-16 16:01:18 Local
Advertisement - Login to hide

Runways

ID Width Length Bearing (true) Bearing (mag) Surface Threshold Offset Overrun Length
08 148 ft / 45 m 6,058 ft / 1,846 m 73.07° 76.78° Asphalt 407 ft / 124 m 0 ft / 0 m
26 148 ft / 45 m 6,058 ft / 1,846 m 253.09° 256.80° Asphalt 0 ft / 0 m 0 ft / 0 m

Approach Navaids

Runway Type Ident Frequency Range Bearing (true) Bearing (mag) Slope Elevation
26 Localiser IEGT 108.30 MHz 18 nm / 33 km 253.08° 256.79° - 22 ft / 7 m (AMSL)
26 Glidescope IEGT 108.30 MHz 10 nm / 19 km 253.08° 256.79° 3.00° 22 ft / 7 m (AMSL)
26 DME IEGT 108.30 MHz 18 nm / 33 km - - - 28 ft / 9 m (AMSL)

Map

Weather


0- 5 10 15 20 25 30 35+ Temperature / ° C

Clouds and Precipitation
Forecast for 2017-12-16 12:00 UTC. Updated 22 minutes ago

Ground ~20,000 ft ~40,000 ft Winds

METAR

EGAE 161120Z 21007KT 9999 VCSH FEW012 SCT035 06/05 Q1019

TAF

Not found

Frequencies

Tower 134.15 MHz TWR
Approach 123.62 MHz APP
Warning: Do not use this data for real-world aviation or navigation. No guarantee of current accuracy is given.